sensor_id;sensor_type;location;lat;lon;timestamp;temperature;humidity
35635;DHT22;21757;43.610;1.440;2022-08-30T00:00:24;22.40;99.90
35635;DHT22;21757;43.610;1.440;2022-08-30T00:03:11;22.30;99.90
35635;DHT22;21757;43.610;1.440;2022-08-30T00:05:39;22.30;99.90
35635;DHT22;21757;43.610;1.440;2022-08-30T00:08:06;22.40;99.90
35635;DHT22;21757;43.610;1.440;2022-08-30T00:10:31;22.30;99.90
35635;DHT22;21757;43.610;1.440;2022-08-30T00:12:58;22.30;99.90
35635;DHT22;21757;43.610;1.440;2022-08-30T00:15:25;22.30;99.90
35635;DHT22;21757;43.610;1.440;2022-08-30T00:17:51;22.30;99.90
35635;DHT22;21757;43.610;1.440;2022-08-30T00:20:21;22.30;99.90
35635;DHT22;21757;43.610;1.440;2022-08-30T00:22:47;22.40;99.90
35635;DHT22;21757;43.610;1.440;2022-08-30T00:25:15;22.30;99.90
35635;DHT22;21757;43.610;1.440;2022-08-30T00:27:41;22.30;99.90
35635;DHT22;21757;43.610;1.440;2022-08-30T00:30:09;22.30;99.90
35635;DHT22;21757;43.610;1.440;2022-08-30T00:32:35;22.20;99.90
35635;DHT22;21757;43.610;1.440;2022-08-30T00:35:02;22.20;99.90
35635;DHT22;21757;43.610;1.440;2022-08-30T00:37:28;22.10;99.90
35635;DHT22;21757;43.610;1.440;2022-08-30T00:39:53;22.10;99.90
35635;DHT22;21757;43.610;1.440;2022-08-30T00:42:20;22.10;99.90
35635;DHT22;21757;43.610;1.440;2022-08-30T00:44:46;22.00;99.90
35635;DHT22;21757;43.610;1.440;2022-08-30T00:47:12;22.00;99.90
35635;DHT22;21757;43.610;1.440;2022-08-30T00:49:42;21.90;99.90
35635;DHT22;21757;43.610;1.440;2022-08-30T00:52:08;22.00;99.90
35635;DHT22;21757;43.610;1.440;2022-08-30T00:54:37;22.00;99.90
35635;DHT22;21757;43.610;1.440;2022-08-30T00:57:04;22.00;99.90
35635;DHT22;21757;43.610;1.440;2022-08-30T00:59:30;22.00;99.90
35635;DHT22;21757;43.610;1.440;2022-08-30T01:01:57;22.10;99.90
35635;DHT22;21757;43.610;1.440;2022-08-30T01:04:24;22.00;99.90
35635;DHT22;21757;43.610;1.440;2022-08-30T01:06:50;22.10;99.90
35635;DHT22;21757;43.610;1.440;2022-08-30T01:09:17;22.10;99.90
35635;DHT22;21757;43.610;1.440;2022-08-30T01:11:44;22.10;99.90
35635;DHT22;21757;43.610;1.440;2022-08-30T01:14:11;22.00;99.90
35635;DHT22;21757;43.610;1.440;2022-08-30T01:16:39;22.00;99.90
35635;DHT22;21757;43.610;1.440;2022-08-30T01:19:16;21.90;99.90
35635;DHT22;21757;43.610;1.440;2022-08-30T01:21:53;21.80;99.90
35635;DHT22;21757;43.610;1.440;2022-08-30T01:24:22;21.70;99.90
35635;DHT22;21757;43.610;1.440;2022-08-30T01:26:47;21.60;99.90
35635;DHT22;21757;43.610;1.440;2022-08-30T01:29:18;21.50;99.90
35635;DHT22;21757;43.610;1.440;2022-08-30T01:31:44;21.40;99.90
35635;DHT22;21757;43.610;1.440;2022-08-30T01:34:11;21.40;99.90
35635;DHT22;21757;43.610;1.440;2022-08-30T01:36:38;21.30;99.90
35635;DHT22;21757;43.610;1.440;2022-08-30T01:39:04;21.20;99.90
35635;DHT22;21757;43.610;1.440;2022-08-30T01:41:33;21.00;99.90
35635;DHT22;21757;43.610;1.440;2022-08-30T01:44:03;21.20;99.90
35635;DHT22;21757;43.610;1.440;2022-08-30T01:46:32;21.10;99.90
35635;DHT22;21757;43.610;1.440;2022-08-30T01:49:03;21.10;99.90
35635;DHT22;21757;43.610;1.440;2022-08-30T01:51:29;21.10;99.90
35635;DHT22;21757;43.610;1.440;2022-08-30T01:53:56;21.10;99.90
35635;DHT22;21757;43.610;1.440;2022-08-30T01:56:23;21.10;99.90
35635;DHT22;21757;43.610;1.440;2022-08-30T01:58:50;21.10;99.90
35635;DHT22;21757;43.610;1.440;2022-08-30T02:01:17;21.00;99.90
35635;DHT22;21757;43.610;1.440;2022-08-30T02:03:44;21.00;99.90
35635;DHT22;21757;43.610;1.440;2022-08-30T02:06:14;21.10;99.90
35635;DHT22;21757;43.610;1.440;2022-08-30T02:08:40;20.90;99.90
35635;DHT22;21757;43.610;1.440;2022-08-30T02:11:07;20.80;99.90
35635;DHT22;21757;43.610;1.440;2022-08-30T02:13:34;20.80;99.90
35635;DHT22;21757;43.610;1.440;2022-08-30T02:16:09;20.70;99.90
35635;DHT22;21757;43.610;1.440;2022-08-30T02:18:36;20.70;99.90
35635;DHT22;21757;43.610;1.440;2022-08-30T02:21:04;20.70;99.90
35635;DHT22;21757;43.610;1.440;2022-08-30T02:23:30;20.70;99.90
35635;DHT22;21757;43.610;1.440;2022-08-30T02:25:55;20.80;99.90
35635;DHT22;21757;43.610;1.440;2022-08-30T02:28:21;20.90;99.90
35635;DHT22;21757;43.610;1.440;2022-08-30T02:30:47;20.90;99.90
35635;DHT22;21757;43.610;1.440;2022-08-30T02:33:14;20.90;99.90
35635;DHT22;21757;43.610;1.440;2022-08-30T02:35:40;20.90;99.90
35635;DHT22;21757;43.610;1.440;2022-08-30T02:38:06;20.80;99.90
35635;DHT22;21757;43.610;1.440;2022-08-30T02:40:33;20.70;99.90
35635;DHT22;21757;43.610;1.440;2022-08-30T02:42:58;20.80;99.90
35635;DHT22;21757;43.610;1.440;2022-08-30T02:45:24;20.80;99.90
35635;DHT22;21757;43.610;1.440;2022-08-30T02:47:50;20.80;99.90
35635;DHT22;21757;43.610;1.440;2022-08-30T02:50:16;20.80;99.90
35635;DHT22;21757;43.610;1.440;2022-08-30T02:52:42;20.80;99.90
35635;DHT22;21757;43.610;1.440;2022-08-30T02:55:08;20.80;99.90
35635;DHT22;21757;43.610;1.440;2022-08-30T02:57:34;20.90;99.90
35635;DHT22;21757;43.610;1.440;2022-08-30T03:00:00;20.80;99.90
35635;DHT22;21757;43.610;1.440;2022-08-30T03:02:26;20.80;99.90
35635;DHT22;21757;43.610;1.440;2022-08-30T03:04:52;20.80;99.90
35635;DHT22;21757;43.610;1.440;2022-08-30T03:07:18;20.90;99.90
35635;DHT22;21757;43.610;1.440;2022-08-30T03:09:44;20.80;99.90
35635;DHT22;21757;43.610;1.440;2022-08-30T03:12:10;20.90;99.90
35635;DHT22;21757;43.610;1.440;2022-08-30T03:14:37;20.90;99.90
35635;DHT22;21757;43.610;1.440;2022-08-30T03:17:06;20.90;99.90
35635;DHT22;21757;43.610;1.440;2022-08-30T03:19:32;20.90;99.90
35635;DHT22;21757;43.610;1.440;2022-08-30T03:21:58;20.80;99.90
35635;DHT22;21757;43.610;1.440;2022-08-30T03:24:24;20.90;99.90
35635;DHT22;21757;43.610;1.440;2022-08-30T03:26:51;20.90;99.90
35635;DHT22;21757;43.610;1.440;2022-08-30T03:29:16;20.90;99.90
35635;DHT22;21757;43.610;1.440;2022-08-30T03:31:42;20.90;99.90
35635;DHT22;21757;43.610;1.440;2022-08-30T03:34:08;20.90;99.90
35635;DHT22;21757;43.610;1.440;2022-08-30T03:36:36;21.00;99.90
35635;DHT22;21757;43.610;1.440;2022-08-30T03:39:04;20.90;99.90
35635;DHT22;21757;43.610;1.440;2022-08-30T03:41:30;20.90;99.90
35635;DHT22;21757;43.610;1.440;2022-08-30T03:43:57;20.90;99.90
35635;DHT22;21757;43.610;1.440;2022-08-30T03:46:23;20.90;99.90
35635;DHT22;21757;43.610;1.440;2022-08-30T03:48:48;20.90;99.90
35635;DHT22;21757;43.610;1.440;2022-08-30T03:51:14;21.00;99.90
35635;DHT22;21757;43.610;1.440;2022-08-30T03:53:40;21.00;99.90
35635;DHT22;21757;43.610;1.440;2022-08-30T03:56:06;21.10;99.90
35635;DHT22;21757;43.610;1.440;2022-08-30T03:58:32;21.00;99.90
35635;DHT22;21757;43.610;1.440;2022-08-30T04:00:58;21.00;99.90
35635;DHT22;21757;43.610;1.440;2022-08-30T04:03:24;21.00;99.90
35635;DHT22;21757;43.610;1.440;2022-08-30T04:05:54;21.00;99.90
35635;DHT22;21757;43.610;1.440;2022-08-30T04:08:20;21.00;99.90
35635;DHT22;21757;43.610;1.440;2022-08-30T04:10:47;21.00;99.90
35635;DHT22;21757;43.610;1.440;2022-08-30T04:13:13;20.90;99.90
35635;DHT22;21757;43.610;1.440;2022-08-30T04:15:39;20.90;99.90
35635;DHT22;21757;43.610;1.440;2022-08-30T04:18:05;20.80;99.90
35635;DHT22;21757;43.610;1.440;2022-08-30T04:20:30;20.80;99.90
35635;DHT22;21757;43.610;1.440;2022-08-30T04:22:56;20.80;99.90
35635;DHT22;21757;43.610;1.440;2022-08-30T04:25:22;20.90;99.90
35635;DHT22;21757;43.610;1.440;2022-08-30T04:27:48;20.90;99.90
35635;DHT22;21757;43.610;1.440;2022-08-30T04:30:15;20.90;99.90
35635;DHT22;21757;43.610;1.440;2022-08-30T04:32:42;21.00;99.90
35635;DHT22;21757;43.610;1.440;2022-08-30T04:35:08;21.00;99.90
35635;DHT22;21757;43.610;1.440;2022-08-30T04:37:35;21.00;99.90
35635;DHT22;21757;43.610;1.440;2022-08-30T04:40:01;21.00;99.90
35635;DHT22;21757;43.610;1.440;2022-08-30T04:42:29;21.00;99.90
35635;DHT22;21757;43.610;1.440;2022-08-30T04:44:57;20.90;99.90
35635;DHT22;21757;43.610;1.440;2022-08-30T04:47:22;21.00;99.90
35635;DHT22;21757;43.610;1.440;2022-08-30T04:49:48;21.00;99.90
35635;DHT22;21757;43.610;1.440;2022-08-30T04:52:14;21.00;99.90
35635;DHT22;21757;43.610;1.440;2022-08-30T04:54:39;21.00;99.90
35635;DHT22;21757;43.610;1.440;2022-08-30T04:57:05;20.90;99.90
35635;DHT22;21757;43.610;1.440;2022-08-30T04:59:31;21.00;99.90
35635;DHT22;21757;43.610;1.440;2022-08-30T05:01:58;20.90;99.90
35635;DHT22;21757;43.610;1.440;2022-08-30T05:04:24;21.00;99.90
35635;DHT22;21757;43.610;1.440;2022-08-30T05:06:50;20.90;99.90
35635;DHT22;21757;43.610;1.440;2022-08-30T05:09:15;21.00;99.90
35635;DHT22;21757;43.610;1.440;2022-08-30T05:11:41;21.00;99.90
35635;DHT22;21757;43.610;1.440;2022-08-30T05:14:08;21.00;99.90
35635;DHT22;21757;43.610;1.440;2022-08-30T05:16:34;21.00;99.90
35635;DHT22;21757;43.610;1.440;2022-08-30T05:19:00;21.00;99.90
35635;DHT22;21757;43.610;1.440;2022-08-30T05:21:27;21.10;99.90
35635;DHT22;21757;43.610;1.440;2022-08-30T05:23:54;21.10;99.90
35635;DHT22;21757;43.610;1.440;2022-08-30T05:26:23;21.10;99.90
35635;DHT22;21757;43.610;1.440;2022-08-30T05:28:49;21.20;99.90
35635;DHT22;21757;43.610;1.440;2022-08-30T05:31:20;21.20;99.90
35635;DHT22;21757;43.610;1.440;2022-08-30T05:33:47;21.20;99.90
35635;DHT22;21757;43.610;1.440;2022-08-30T05:36:14;21.10;99.90
35635;DHT22;21757;43.610;1.440;2022-08-30T05:38:41;21.20;99.90
35635;DHT22;21757;43.610;1.440;2022-08-30T05:41:07;21.20;99.90
35635;DHT22;21757;43.610;1.440;2022-08-30T05:43:33;21.20;99.90
35635;DHT22;21757;43.610;1.440;2022-08-30T05:46:05;21.20;99.90
35635;DHT22;21757;43.610;1.440;2022-08-30T05:48:32;21.20;99.90
35635;DHT22;21757;43.610;1.440;2022-08-30T05:51:22;21.20;99.90
35635;DHT22;21757;43.610;1.440;2022-08-30T05:53:50;21.20;99.90
35635;DHT22;21757;43.610;1.440;2022-08-30T05:56:20;21.20;99.90
35635;DHT22;21757;43.610;1.440;2022-08-30T05:58:46;21.20;99.90
35635;DHT22;21757;43.610;1.440;2022-08-30T06:01:24;21.20;99.90
35635;DHT22;21757;43.610;1.440;2022-08-30T06:03:51;21.20;99.90
35635;DHT22;21757;43.610;1.440;2022-08-30T06:06:17;21.30;99.90
35635;DHT22;21757;43.610;1.440;2022-08-30T06:08:42;21.30;99.90
35635;DHT22;21757;43.610;1.440;2022-08-30T06:11:12;21.40;99.90
35635;DHT22;21757;43.610;1.440;2022-08-30T06:13:39;21.30;99.90
35635;DHT22;21757;43.610;1.440;2022-08-30T06:16:06;21.30;99.90
35635;DHT22;21757;43.610;1.440;2022-08-30T06:18:32;21.30;99.90
35635;DHT22;21757;43.610;1.440;2022-08-30T06:20:58;21.40;99.90
35635;DHT22;21757;43.610;1.440;2022-08-30T06:23:23;21.50;99.90
35635;DHT22;21757;43.610;1.440;2022-08-30T06:25:49;21.40;99.90
35635;DHT22;21757;43.610;1.440;2022-08-30T06:28:15;21.40;99.90
35635;DHT22;21757;43.610;1.440;2022-08-30T06:30:41;21.40;99.90
35635;DHT22;21757;43.610;1.440;2022-08-30T06:33:08;21.40;99.90
35635;DHT22;21757;43.610;1.440;2022-08-30T06:35:35;21.30;99.90
35635;DHT22;21757;43.610;1.440;2022-08-30T06:38:01;21.30;99.90
35635;DHT22;21757;43.610;1.440;2022-08-30T06:40:26;21.30;99.90
35635;DHT22;21757;43.610;1.440;2022-08-30T06:42:52;21.40;99.90
35635;DHT22;21757;43.610;1.440;2022-08-30T06:45:19;21.70;99.90
35635;DHT22;21757;43.610;1.440;2022-08-30T06:47:45;21.80;99.90
35635;DHT22;21757;43.610;1.440;2022-08-30T06:50:12;21.90;99.90
35635;DHT22;21757;43.610;1.440;2022-08-30T06:52:39;21.80;99.90
35635;DHT22;21757;43.610;1.440;2022-08-30T06:55:07;21.80;99.90
35635;DHT22;21757;43.610;1.440;2022-08-30T06:57:32;21.80;99.90
35635;DHT22;21757;43.610;1.440;2022-08-30T06:59:58;21.80;99.90
35635;DHT22;21757;43.610;1.440;2022-08-30T07:02:24;21.80;99.90
35635;DHT22;21757;43.610;1.440;2022-08-30T07:04:50;21.80;99.90
35635;DHT22;21757;43.610;1.440;2022-08-30T07:07:16;21.80;99.90
35635;DHT22;21757;43.610;1.440;2022-08-30T07:09:42;22.00;99.90
35635;DHT22;21757;43.610;1.440;2022-08-30T07:12:10;22.00;99.90
35635;DHT22;21757;43.610;1.440;2022-08-30T07:14:37;22.00;99.90
35635;DHT22;21757;43.610;1.440;2022-08-30T07:17:03;22.00;99.90
35635;DHT22;21757;43.610;1.440;2022-08-30T07:19:52;22.10;99.90
35635;DHT22;21757;43.610;1.440;2022-08-30T07:22:18;22.20;99.90
35635;DHT22;21757;43.610;1.440;2022-08-30T07:24:44;22.30;99.90
35635;DHT22;21757;43.610;1.440;2022-08-30T07:27:10;22.30;99.90
35635;DHT22;21757;43.610;1.440;2022-08-30T07:29:36;22.40;99.90
35635;DHT22;21757;43.610;1.440;2022-08-30T07:32:02;22.40;99.90
35635;DHT22;21757;43.610;1.440;2022-08-30T07:34:28;22.40;99.90
35635;DHT22;21757;43.610;1.440;2022-08-30T07:36:53;22.60;99.90
35635;DHT22;21757;43.610;1.440;2022-08-30T07:39:19;22.60;99.90
35635;DHT22;21757;43.610;1.440;2022-08-30T07:41:45;22.80;99.90
35635;DHT22;21757;43.610;1.440;2022-08-30T07:44:11;22.80;99.90
35635;DHT22;21757;43.610;1.440;2022-08-30T07:46:38;22.90;99.90
35635;DHT22;21757;43.610;1.440;2022-08-30T07:49:04;23.10;99.90
35635;DHT22;21757;43.610;1.440;2022-08-30T07:51:31;23.30;99.90
35635;DHT22;21757;43.610;1.440;2022-08-30T07:53:57;23.30;99.90
35635;DHT22;21757;43.610;1.440;2022-08-30T07:56:23;23.30;99.90
35635;DHT22;21757;43.610;1.440;2022-08-30T07:58:49;23.20;99.90
35635;DHT22;21757;43.610;1.440;2022-08-30T08:01:16;23.30;99.90
35635;DHT22;21757;43.610;1.440;2022-08-30T08:03:42;23.30;99.90
35635;DHT22;21757;43.610;1.440;2022-08-30T08:06:10;23.30;99.90
35635;DHT22;21757;43.610;1.440;2022-08-30T08:08:37;23.30;99.90
35635;DHT22;21757;43.610;1.440;2022-08-30T08:11:14;23.40;99.90
35635;DHT22;21757;43.610;1.440;2022-08-30T08:13:41;23.50;99.90
35635;DHT22;21757;43.610;1.440;2022-08-30T08:16:08;23.60;99.90
35635;DHT22;21757;43.610;1.440;2022-08-30T08:18:33;23.70;99.90
35635;DHT22;21757;43.610;1.440;2022-08-30T08:20:59;23.70;99.90
35635;DHT22;21757;43.610;1.440;2022-08-30T08:23:26;23.70;99.90
35635;DHT22;21757;43.610;1.440;2022-08-30T08:25:52;23.70;99.90
35635;DHT22;21757;43.610;1.440;2022-08-30T08:28:18;23.60;99.90
35635;DHT22;21757;43.610;1.440;2022-08-30T08:30:44;23.70;99.90
35635;DHT22;21757;43.610;1.440;2022-08-30T08:33:10;23.80;99.90
35635;DHT22;21757;43.610;1.440;2022-08-30T08:35:37;23.80;99.90
35635;DHT22;21757;43.610;1.440;2022-08-30T08:38:03;23.80;99.90
35635;DHT22;21757;43.610;1.440;2022-08-30T08:40:33;23.90;99.90
35635;DHT22;21757;43.610;1.440;2022-08-30T08:43:11;23.90;99.90
35635;DHT22;21757;43.610;1.440;2022-08-30T08:48:13;24.00;99.90
35635;DHT22;21757;43.610;1.440;2022-08-30T08:50:40;24.30;99.90
35635;DHT22;21757;43.610;1.440;2022-08-30T08:53:32;24.40;99.90
35635;DHT22;21757;43.610;1.440;2022-08-30T08:56:09;24.30;99.90
35635;DHT22;21757;43.610;1.440;2022-08-30T09:01:17;24.50;99.90
35635;DHT22;21757;43.610;1.440;2022-08-30T09:03:43;24.60;99.90
35635;DHT22;21757;43.610;1.440;2022-08-30T09:09:08;24.60;99.90
35635;DHT22;21757;43.610;1.440;2022-08-30T09:11:35;25.00;99.90
35635;DHT22;21757;43.610;1.440;2022-08-30T09:14:08;25.20;99.90
35635;DHT22;21757;43.610;1.440;2022-08-30T09:19:56;25.20;99.90
35635;DHT22;21757;43.610;1.440;2022-08-30T09:22:32;25.10;99.90
35635;DHT22;21757;43.610;1.440;2022-08-30T09:27:45;25.20;99.90
35635;DHT22;21757;43.610;1.440;2022-08-30T09:30:18;25.10;99.90
35635;DHT22;21757;43.610;1.440;2022-08-30T09:32:59;24.90;99.90
35635;DHT22;21757;43.610;1.440;2022-08-30T09:38:09;25.00;99.90
35635;DHT22;21757;43.610;1.440;2022-08-30T09:43:09;25.00;99.90
35635;DHT22;21757;43.610;1.440;2022-08-30T09:45:40;25.10;99.90
35635;DHT22;21757;43.610;1.440;2022-08-30T09:51:10;25.40;99.90
35635;DHT22;21757;43.610;1.440;2022-08-30T10:05:04;26.10;99.90
35635;DHT22;21757;43.610;1.440;2022-08-30T10:10:48;26.20;99.90
35635;DHT22;21757;43.610;1.440;2022-08-30T10:16:03;26.30;99.90
35635;DHT22;21757;43.610;1.440;2022-08-30T10:21:25;26.30;99.90
35635;DHT22;21757;43.610;1.440;2022-08-30T10:24:13;26.30;99.90
35635;DHT22;21757;43.610;1.440;2022-08-30T10:26:56;26.40;99.90
35635;DHT22;21757;43.610;1.440;2022-08-30T10:29:46;26.50;99.90
35635;DHT22;21757;43.610;1.440;2022-08-30T10:32:35;26.70;99.90
35635;DHT22;21757;43.610;1.440;2022-08-30T10:35:13;26.80;99.90
35635;DHT22;21757;43.610;1.440;2022-08-30T10:37:56;26.60;99.90
35635;DHT22;21757;43.610;1.440;2022-08-30T10:40:30;26.50;99.90
35635;DHT22;21757;43.610;1.440;2022-08-30T10:43:33;26.60;99.90
35635;DHT22;21757;43.610;1.440;2022-08-30T10:46:10;26.70;99.90
35635;DHT22;21757;43.610;1.440;2022-08-30T10:48:41;26.90;99.90
35635;DHT22;21757;43.610;1.440;2022-08-30T10:51:14;27.00;99.90
35635;DHT22;21757;43.610;1.440;2022-08-30T10:53:45;27.00;99.90
35635;DHT22;21757;43.610;1.440;2022-08-30T10:56:18;27.00;99.90
35635;DHT22;21757;43.610;1.440;2022-08-30T10:58:47;26.80;99.90
35635;DHT22;21757;43.610;1.440;2022-08-30T11:07:09;27.00;99.90
35635;DHT22;21757;43.610;1.440;2022-08-30T11:12:51;27.10;99.90
35635;DHT22;21757;43.610;1.440;2022-08-30T11:15:23;27.30;99.90
35635;DHT22;21757;43.610;1.440;2022-08-30T11:18:04;27.40;99.90
35635;DHT22;21757;43.610;1.440;2022-08-30T11:20:49;27.40;99.90
35635;DHT22;21757;43.610;1.440;2022-08-30T11:23:31;27.50;99.90
35635;DHT22;21757;43.610;1.440;2022-08-30T11:26:09;27.40;99.90
35635;DHT22;21757;43.610;1.440;2022-08-30T11:31:05;27.40;99.90
35635;DHT22;21757;43.610;1.440;2022-08-30T11:33:47;27.40;99.90
35635;DHT22;21757;43.610;1.440;2022-08-30T11:41:48;27.60;99.90
35635;DHT22;21757;43.610;1.440;2022-08-30T11:44:33;27.70;99.90
35635;DHT22;21757;43.610;1.440;2022-08-30T11:47:00;27.70;99.90
35635;DHT22;21757;43.610;1.440;2022-08-30T11:50:23;27.70;99.90
35635;DHT22;21757;43.610;1.440;2022-08-30T11:52:42;28.00;99.90
35635;DHT22;21757;43.610;1.440;2022-08-30T11:55:26;28.00;99.90
35635;DHT22;21757;43.610;1.440;2022-08-30T11:58:13;27.90;99.90
35635;DHT22;21757;43.610;1.440;2022-08-30T12:00:43;27.90;99.90
35635;DHT22;21757;43.610;1.440;2022-08-30T12:16:17;28.50;99.90
35635;DHT22;21757;43.610;1.440;2022-08-30T12:18:47;28.40;99.90
35635;DHT22;21757;43.610;1.440;2022-08-30T12:28:51;28.60;99.90
35635;DHT22;21757;43.610;1.440;2022-08-30T12:31:22;28.60;99.90
35635;DHT22;21757;43.610;1.440;2022-08-30T12:33:55;28.70;99.90
35635;DHT22;21757;43.610;1.440;2022-08-30T12:36:36;28.70;99.90
35635;DHT22;21757;43.610;1.440;2022-08-30T12:39:14;28.90;99.90
35635;DHT22;21757;43.610;1.440;2022-08-30T12:41:40;29.10;99.90
35635;DHT22;21757;43.610;1.440;2022-08-30T12:44:11;29.10;99.90
35635;DHT22;21757;43.610;1.440;2022-08-30T12:46:39;29.10;99.90
35635;DHT22;21757;43.610;1.440;2022-08-30T12:49:06;29.00;99.80
35635;DHT22;21757;43.610;1.440;2022-08-30T12:51:38;29.10;99.80
35635;DHT22;21757;43.610;1.440;2022-08-30T12:54:16;29.40;99.60
35635;DHT22;21757;43.610;1.440;2022-08-30T12:56:51;29.40;99.70
35635;DHT22;21757;43.610;1.440;2022-08-30T12:59:39;29.50;99.60
35635;DHT22;21757;43.610;1.440;2022-08-30T13:02:14;29.40;99.50
35635;DHT22;21757;43.610;1.440;2022-08-30T13:04:40;29.30;99.50
35635;DHT22;21757;43.610;1.440;2022-08-30T13:07:06;29.50;99.70
35635;DHT22;21757;43.610;1.440;2022-08-30T13:09:38;29.60;99.60
35635;DHT22;21757;43.610;1.440;2022-08-30T13:12:22;29.60;99.60
35635;DHT22;21757;43.610;1.440;2022-08-30T13:14:48;29.30;99.40
35635;DHT22;21757;43.610;1.440;2022-08-30T13:17:25;29.40;99.60
35635;DHT22;21757;43.610;1.440;2022-08-30T13:22:45;29.60;99.30
35635;DHT22;21757;43.610;1.440;2022-08-30T13:25:24;29.50;99.20
35635;DHT22;21757;43.610;1.440;2022-08-30T13:27:50;29.70;99.00
35635;DHT22;21757;43.610;1.440;2022-08-30T13:30:16;29.80;99.00
35635;DHT22;21757;43.610;1.440;2022-08-30T13:32:42;29.90;98.90
35635;DHT22;21757;43.610;1.440;2022-08-30T13:35:09;29.80;98.90
35635;DHT22;21757;43.610;1.440;2022-08-30T13:37:35;29.80;98.90
35635;DHT22;21757;43.610;1.440;2022-08-30T13:40:02;29.70;98.80
35635;DHT22;21757;43.610;1.440;2022-08-30T13:42:28;29.70;98.70
35635;DHT22;21757;43.610;1.440;2022-08-30T13:44:54;29.90;99.00
35635;DHT22;21757;43.610;1.440;2022-08-30T13:47:20;29.90;98.80
35635;DHT22;21757;43.610;1.440;2022-08-30T13:49:45;30.10;98.60
35635;DHT22;21757;43.610;1.440;2022-08-30T13:52:15;30.20;98.50
35635;DHT22;21757;43.610;1.440;2022-08-30T13:54:41;30.10;98.40
35635;DHT22;21757;43.610;1.440;2022-08-30T13:57:07;30.00;98.40
35635;DHT22;21757;43.610;1.440;2022-08-30T13:59:32;30.00;98.00
35635;DHT22;21757;43.610;1.440;2022-08-30T14:01:59;30.00;97.90
35635;DHT22;21757;43.610;1.440;2022-08-30T14:04:25;30.00;97.90
35635;DHT22;21757;43.610;1.440;2022-08-30T14:06:51;30.30;98.00
35635;DHT22;21757;43.610;1.440;2022-08-30T14:09:17;30.30;97.60
35635;DHT22;21757;43.610;1.440;2022-08-30T14:11:43;30.10;97.40
35635;DHT22;21757;43.610;1.440;2022-08-30T14:14:10;30.40;97.60
35635;DHT22;21757;43.610;1.440;2022-08-30T14:16:38;30.40;97.40
35635;DHT22;21757;43.610;1.440;2022-08-30T14:19:05;30.30;97.00
35635;DHT22;21757;43.610;1.440;2022-08-30T14:21:31;30.30;96.90
35635;DHT22;21757;43.610;1.440;2022-08-30T14:23:57;30.40;97.30
35635;DHT22;21757;43.610;1.440;2022-08-30T14:26:28;30.30;96.80
35635;DHT22;21757;43.610;1.440;2022-08-30T14:28:54;30.30;96.50
35635;DHT22;21757;43.610;1.440;2022-08-30T14:31:20;30.60;96.30
35635;DHT22;21757;43.610;1.440;2022-08-30T14:33:46;30.70;96.00
35635;DHT22;21757;43.610;1.440;2022-08-30T14:36:11;30.70;96.10
35635;DHT22;21757;43.610;1.440;2022-08-30T14:38:37;30.70;95.50
35635;DHT22;21757;43.610;1.440;2022-08-30T14:41:04;30.60;95.00
35635;DHT22;21757;43.610;1.440;2022-08-30T14:43:30;30.60;95.30
35635;DHT22;21757;43.610;1.440;2022-08-30T14:45:59;30.70;94.90
35635;DHT22;21757;43.610;1.440;2022-08-30T14:48:25;30.80;94.80
35635;DHT22;21757;43.610;1.440;2022-08-30T14:50:51;30.80;94.80
35635;DHT22;21757;43.610;1.440;2022-08-30T14:53:17;30.90;94.60
35635;DHT22;21757;43.610;1.440;2022-08-30T14:55:43;31.00;94.60
35635;DHT22;21757;43.610;1.440;2022-08-30T14:58:09;31.20;94.40
35635;DHT22;21757;43.610;1.440;2022-08-30T15:00:36;31.10;94.10
35635;DHT22;21757;43.610;1.440;2022-08-30T15:03:03;31.10;94.00
35635;DHT22;21757;43.610;1.440;2022-08-30T15:05:28;31.00;93.90
35635;DHT22;21757;43.610;1.440;2022-08-30T15:07:56;30.90;93.70
35635;DHT22;21757;43.610;1.440;2022-08-30T15:10:22;31.00;93.70
35635;DHT22;21757;43.610;1.440;2022-08-30T15:12:49;31.10;93.50
35635;DHT22;21757;43.610;1.440;2022-08-30T15:15:17;31.20;93.60
35635;DHT22;21757;43.610;1.440;2022-08-30T15:17:49;31.20;93.70
35635;DHT22;21757;43.610;1.440;2022-08-30T15:20:16;31.30;93.70
35635;DHT22;21757;43.610;1.440;2022-08-30T15:22:45;31.30;93.20
35635;DHT22;21757;43.610;1.440;2022-08-30T15:25:10;31.20;93.40
35635;DHT22;21757;43.610;1.440;2022-08-30T15:27:36;31.20;93.20
35635;DHT22;21757;43.610;1.440;2022-08-30T15:30:03;31.10;93.30
35635;DHT22;21757;43.610;1.440;2022-08-30T15:32:28;31.20;93.20
35635;DHT22;21757;43.610;1.440;2022-08-30T15:34:54;31.20;93.10
35635;DHT22;21757;43.610;1.440;2022-08-30T15:37:20;31.20;92.90
35635;DHT22;21757;43.610;1.440;2022-08-30T15:39:48;31.10;93.00
35635;DHT22;21757;43.610;1.440;2022-08-30T15:42:14;31.20;95.60
35635;DHT22;21757;43.610;1.440;2022-08-30T15:44:40;31.20;92.70
35635;DHT22;21757;43.610;1.440;2022-08-30T15:47:06;31.30;97.90
35635;DHT22;21757;43.610;1.440;2022-08-30T15:49:32;31.30;92.20
35635;DHT22;21757;43.610;1.440;2022-08-30T15:52:02;31.30;92.10
35635;DHT22;21757;43.610;1.440;2022-08-30T15:54:29;31.30;92.00
35635;DHT22;21757;43.610;1.440;2022-08-30T15:56:54;31.20;91.90
35635;DHT22;21757;43.610;1.440;2022-08-30T15:59:26;31.30;91.80
35635;DHT22;21757;43.610;1.440;2022-08-30T16:01:52;31.20;91.80
35635;DHT22;21757;43.610;1.440;2022-08-30T16:04:18;31.10;92.10
35635;DHT22;21757;43.610;1.440;2022-08-30T16:06:44;31.20;91.80
35635;DHT22;21757;43.610;1.440;2022-08-30T16:09:10;31.10;91.70
35635;DHT22;21757;43.610;1.440;2022-08-30T16:11:37;31.10;91.80
35635;DHT22;21757;43.610;1.440;2022-08-30T16:14:04;31.10;91.80
35635;DHT22;21757;43.610;1.440;2022-08-30T16:16:30;31.10;91.70
35635;DHT22;21757;43.610;1.440;2022-08-30T16:18:56;31.00;91.60
35635;DHT22;21757;43.610;1.440;2022-08-30T16:21:28;31.10;91.70
35635;DHT22;21757;43.610;1.440;2022-08-30T16:23:56;31.20;91.70
35635;DHT22;21757;43.610;1.440;2022-08-30T16:26:23;31.20;91.40
35635;DHT22;21757;43.610;1.440;2022-08-30T16:28:48;31.10;91.30
35635;DHT22;21757;43.610;1.440;2022-08-30T16:31:16;31.10;91.50
35635;DHT22;21757;43.610;1.440;2022-08-30T16:33:42;31.20;91.30
35635;DHT22;21757;43.610;1.440;2022-08-30T16:36:08;31.10;91.20
35635;DHT22;21757;43.610;1.440;2022-08-30T16:38:36;31.10;91.00
35635;DHT22;21757;43.610;1.440;2022-08-30T16:41:08;31.10;91.10
35635;DHT22;21757;43.610;1.440;2022-08-30T16:43:34;31.00;90.80
35635;DHT22;21757;43.610;1.440;2022-08-30T16:46:02;31.00;90.90
35635;DHT22;21757;43.610;1.440;2022-08-30T16:48:28;31.10;90.80
35635;DHT22;21757;43.610;1.440;2022-08-30T16:50:54;31.10;90.70
35635;DHT22;21757;43.610;1.440;2022-08-30T16:53:21;31.00;90.70
35635;DHT22;21757;43.610;1.440;2022-08-30T16:55:47;30.90;90.50
35635;DHT22;21757;43.610;1.440;2022-08-30T16:58:13;30.90;90.60
35635;DHT22;21757;43.610;1.440;2022-08-30T17:00:39;30.90;90.60